createdAt,value
2018-06-18T00:00:26.814Z,99.70
2018-06-18T00:05:21.290Z,99.30
2018-06-18T00:10:15.776Z,99.10
2018-06-18T00:15:10.220Z,98.90
2018-06-18T00:20:04.690Z,99.50
2018-06-18T00:24:59.101Z,99.70
2018-06-18T00:29:53.512Z,99.10
2018-06-18T00:34:48.033Z,99.50
2018-06-18T00:39:42.488Z,99.20
2018-06-18T00:44:36.927Z,99.50
2018-06-18T00:49:31.324Z,99.40
2018-06-18T00:54:25.768Z,99.30
2018-06-18T00:59:20.199Z,99.60
2018-06-18T01:04:14.608Z,99.90
2018-06-18T01:09:11.275Z,99.90
2018-06-18T01:14:06.703Z,99.90
2018-06-18T01:19:01.120Z,99.90
2018-06-18T01:24:08.629Z,99.80
2018-06-18T01:29:03.169Z,99.90
2018-06-18T01:34:01.088Z,99.90
2018-06-18T01:38:55.516Z,99.90
2018-06-18T01:43:49.925Z,99.90
2018-06-18T01:48:44.357Z,99.90
2018-06-18T01:53:38.796Z,99.90
2018-06-18T01:58:33.205Z,99.90
2018-06-18T02:03:27.625Z,99.90
2018-06-18T02:08:22.038Z,99.90
2018-06-18T02:13:16.429Z,99.50
2018-06-18T02:18:10.850Z,99.60
2018-06-18T02:23:05.332Z,99.60
2018-06-18T02:28:04.982Z,99.80
2018-06-18T02:33:04.557Z,99.50
2018-06-18T02:38:04.093Z,99.80
2018-06-18T02:42:58.525Z,99.60
2018-06-18T02:47:52.935Z,99.70
2018-06-18T02:52:47.337Z,99.40
2018-06-18T02:57:41.941Z,99.40
2018-06-18T03:02:36.336Z,99.40
2018-06-18T03:07:30.742Z,99.60
2018-06-18T03:12:25.206Z,98.60
2018-06-18T03:17:20.195Z,98.60
2018-06-18T03:22:19.848Z,98.40
2018-06-18T03:32:17.029Z,99.10
2018-06-18T03:37:14.792Z,98.60
2018-06-18T03:42:09.268Z,99.00
2018-06-18T03:47:12.697Z,99.30
2018-06-18T03:52:07.112Z,99.70
2018-06-18T03:57:01.525Z,99.70
2018-06-18T04:02:06.179Z,99.30
2018-06-18T04:08:09.332Z,99.30
2018-06-18T04:17:58.000Z,98.60
2018-06-18T04:22:52.402Z,97.50
2018-06-18T04:27:47.157Z,96.70
2018-06-18T04:32:41.560Z,97.50
2018-06-18T04:37:36.116Z,97.50
2018-06-18T04:42:35.634Z,97.10
2018-06-18T04:47:35.233Z,97.50
2018-06-18T04:52:29.675Z,98.10
2018-06-18T04:57:24.147Z,98.20
2018-06-18T05:02:18.565Z,97.70
2018-06-18T05:07:13.005Z,97.20
2018-06-18T05:12:07.480Z,96.90
2018-06-18T05:17:01.905Z,96.70
2018-06-18T05:21:56.332Z,96.80
2018-06-18T05:26:54.173Z,96.90
2018-06-18T05:31:48.576Z,95.80
2018-06-18T05:36:42.997Z,96.60
2018-06-18T05:41:37.591Z,97.10
2018-06-18T05:46:31.989Z,96.60
2018-06-18T05:51:27.401Z,94.60
2018-06-18T05:56:21.796Z,92.80
2018-06-18T06:01:16.202Z,91.80
2018-06-18T06:06:10.689Z,90.80
2018-06-18T06:11:05.175Z,90.20
2018-06-18T06:16:00.164Z,91.50
2018-06-18T06:20:59.544Z,91.60
2018-06-18T06:25:54.241Z,90.90
2018-06-18T06:30:48.676Z,89.50
2018-06-18T06:35:45.128Z,87.60
2018-06-18T06:40:39.753Z,90.40
2018-06-18T06:45:46.151Z,90.30
2018-06-18T06:50:41.628Z,90.30
2018-06-18T06:55:36.263Z,89.70
2018-06-18T07:00:30.725Z,87.80
2018-06-18T07:10:20.042Z,86.70
2018-06-18T07:15:18.953Z,84.70
2018-06-18T07:20:13.491Z,80.90
2018-06-18T07:25:08.000Z,77.50
2018-06-18T07:30:02.641Z,77.10
2018-06-18T07:34:57.216Z,72.90
2018-06-18T07:39:52.806Z,67.80
2018-06-18T07:44:47.766Z,69.70
2018-06-18T07:49:42.887Z,68.40
2018-06-18T07:54:44.395Z,72.80
2018-06-18T07:59:39.509Z,72.10
2018-06-18T08:04:41.299Z,72.50
2018-06-18T08:09:37.557Z,70.50
2018-06-18T08:14:32.556Z,68.90
2018-06-18T08:19:26.989Z,66.60
2018-06-18T08:24:21.417Z,72.50
2018-06-18T08:29:16.950Z,71.30
2018-06-18T08:34:11.357Z,69.20
2018-06-18T08:39:09.416Z,64.40
2018-06-18T08:44:04.944Z,67.20
2018-06-18T08:49:06.986Z,68.70
2018-06-18T08:54:06.745Z,68.00
2018-06-18T08:59:10.416Z,68.00
2018-06-18T09:04:10.948Z,65.50
2018-06-18T09:09:08.389Z,65.70
2018-06-18T09:14:02.828Z,65.10
2018-06-18T09:18:58.968Z,65.50
2018-06-18T09:23:54.937Z,65.30
2018-06-18T09:28:51.960Z,64.20
2018-06-18T09:33:47.278Z,62.10
2018-06-18T09:38:41.941Z,60.50
2018-06-18T09:43:36.681Z,59.20
2018-06-18T09:48:37.225Z,59.50
2018-06-18T09:53:36.872Z,61.00
2018-06-18T10:00:46.479Z,59.60
2018-06-18T10:05:41.302Z,56.70
2018-06-18T10:10:36.123Z,61.20
2018-06-18T10:15:31.012Z,61.90
2018-06-18T10:20:26.818Z,65.40
2018-06-18T10:25:21.364Z,64.40
2018-06-18T10:30:16.213Z,64.30
2018-06-18T10:35:16.146Z,64.50
2018-06-18T10:40:16.604Z,60.80
2018-06-18T10:45:13.279Z,61.10
2018-06-18T10:50:07.961Z,61.00
2018-06-18T10:55:03.396Z,57.30
2018-06-18T10:59:57.955Z,58.40
2018-06-18T11:04:59.201Z,55.90
2018-06-18T11:09:55.935Z,55.30
2018-06-18T11:14:54.967Z,55.90
2018-06-18T11:19:56.199Z,58.10
2018-06-18T11:25:00.901Z,55.00
2018-06-18T11:29:56.926Z,55.20
2018-06-18T11:40:20.621Z,54.20
2018-06-18T11:45:28.757Z,55.50
2018-06-18T11:50:26.355Z,54.90
2018-06-18T11:55:24.184Z,54.60
2018-06-18T12:02:32.629Z,53.90
2018-06-18T12:07:33.995Z,55.70
2018-06-18T12:12:30.796Z,53.00
2018-06-18T12:17:27.576Z,51.90
2018-06-18T12:22:24.414Z,54.70
2018-06-18T12:27:27.577Z,54.30
2018-06-18T12:32:26.779Z,53.60
2018-06-18T12:37:25.735Z,51.70
2018-06-18T12:42:26.698Z,52.70
2018-06-18T12:47:29.106Z,53.10
2018-06-18T12:52:31.411Z,52.20
2018-06-18T12:57:29.097Z,50.90
2018-06-18T13:02:37.740Z,51.80
2018-06-18T13:07:35.454Z,51.70
2018-06-18T13:12:33.565Z,52.70
2018-06-18T13:17:31.472Z,53.40
2018-06-18T13:22:30.330Z,54.30
2018-06-18T13:27:33.940Z,53.90
2018-06-18T13:32:31.795Z,53.70
2018-06-18T13:37:34.304Z,53.00
2018-06-18T13:42:37.981Z,52.70
2018-06-18T13:47:41.228Z,52.50
2018-06-18T13:52:38.060Z,53.80
2018-06-18T13:57:42.575Z,53.80
2018-06-18T14:02:40.668Z,52.30
2018-06-18T14:07:37.767Z,52.30
2018-06-18T14:12:36.761Z,53.00
2018-06-18T14:17:33.746Z,53.90
2018-06-18T14:22:29.886Z,52.70
2018-06-18T14:27:27.694Z,51.90
2018-06-18T14:32:29.870Z,51.40
2018-06-18T14:39:35.705Z,50.80
2018-06-18T14:44:32.183Z,51.80
2018-06-18T14:49:27.922Z,51.70
2018-06-18T14:54:24.361Z,51.90
2018-06-18T15:05:12.323Z,52.50
2018-06-18T15:10:08.383Z,53.00
2018-06-18T15:15:09.851Z,53.70
2018-06-18T15:20:05.456Z,52.10
2018-06-18T15:25:14.042Z,52.50
2018-06-18T15:30:10.137Z,53.80
2018-06-18T15:35:05.887Z,54.00
2018-06-18T15:40:01.446Z,53.30
2018-06-18T15:44:57.360Z,54.40
2018-06-18T15:49:53.318Z,54.10
2018-06-18T15:54:57.326Z,53.60
2018-06-18T15:59:55.623Z,53.80
2018-06-18T16:04:52.564Z,52.40
2018-06-18T16:09:49.298Z,54.10
2018-06-18T16:14:46.168Z,53.20
2018-06-18T16:19:43.446Z,53.50
2018-06-18T16:24:40.210Z,54.00
2018-06-18T16:29:37.343Z,53.30
2018-06-18T16:34:34.211Z,54.70
2018-06-18T16:39:31.082Z,53.40
2018-06-18T16:44:27.854Z,54.40
2018-06-18T16:49:24.836Z,54.20
2018-06-18T16:54:21.927Z,54.10
2018-06-18T16:59:18.660Z,54.20
2018-06-18T17:04:15.936Z,54.00
2018-06-18T17:09:13.411Z,54.10
2018-06-18T17:14:10.285Z,54.20
2018-06-18T17:19:07.080Z,54.20
2018-06-18T17:24:03.959Z,54.60
2018-06-18T17:29:00.787Z,54.80
2018-06-18T17:33:57.591Z,55.40
2018-06-18T17:38:54.424Z,54.80
2018-06-18T17:43:51.367Z,55.10
2018-06-18T17:48:48.156Z,54.50
2018-06-18T17:53:45.011Z,54.10
2018-06-18T17:58:41.786Z,55.30
2018-06-18T18:03:38.589Z,54.60
2018-06-18T18:08:35.245Z,54.70
2018-06-18T18:13:33.484Z,55.20
2018-06-18T18:18:30.288Z,55.80
2018-06-18T18:28:23.127Z,56.20
2018-06-18T18:33:20.104Z,56.90
2018-06-18T18:38:16.802Z,57.70
2018-06-18T18:43:13.749Z,57.50
2018-06-18T18:48:10.565Z,58.30
2018-06-18T18:53:07.710Z,59.00
2018-06-18T18:58:21.165Z,60.30
2018-06-18T19:03:20.196Z,61.30
2018-06-18T19:08:22.325Z,63.50
2018-06-18T19:13:26.240Z,65.70
2018-06-18T19:18:23.010Z,66.10
2018-06-18T19:23:19.803Z,66.90
2018-06-18T19:28:16.492Z,69.90
2018-06-18T19:33:23.890Z,73.30
2018-06-18T19:38:20.847Z,75.70
2018-06-18T19:43:17.720Z,77.80
2018-06-18T19:48:20.495Z,79.40
2018-06-18T19:53:17.288Z,80.80
2018-06-18T19:58:14.147Z,81.80
2018-06-18T20:03:10.874Z,81.80
2018-06-18T20:08:13.503Z,84.00
2018-06-18T20:13:10.177Z,84.40
2018-06-18T20:18:07.033Z,85.10
2018-06-18T20:23:04.837Z,85.70
2018-06-18T20:28:01.629Z,85.80
2018-06-18T20:32:58.267Z,84.00
2018-06-18T20:37:55.238Z,83.80
2018-06-18T20:47:48.472Z,82.10
2018-06-18T20:52:45.675Z,82.00
2018-06-18T20:57:42.563Z,83.80
2018-06-18T21:02:39.265Z,82.60
2018-06-18T21:07:36.671Z,82.10
2018-06-18T21:12:33.670Z,80.40
2018-06-18T21:17:30.530Z,80.10
2018-06-18T21:22:27.229Z,81.20
2018-06-18T21:27:24.136Z,79.80
2018-06-18T21:32:20.883Z,80.40
2018-06-18T21:37:17.689Z,79.70
2018-06-18T21:42:14.328Z,80.40
2018-06-18T21:52:07.204Z,80.00
2018-06-18T21:57:04.053Z,81.20
2018-06-18T22:02:00.775Z,81.30
2018-06-18T22:06:57.584Z,81.80
2018-06-18T22:11:56.749Z,83.50
2018-06-18T22:16:53.698Z,84.40
2018-06-18T22:21:50.556Z,85.00
2018-06-18T22:26:47.543Z,85.00
2018-06-18T22:31:44.202Z,86.80
2018-06-18T22:36:41.015Z,87.20
2018-06-18T22:41:37.713Z,88.60
2018-06-18T22:46:34.538Z,88.10
2018-06-18T22:51:31.260Z,88.00
2018-06-18T22:56:28.225Z,89.90
2018-06-18T23:01:24.937Z,89.20
2018-06-18T23:06:22.027Z,88.90
2018-06-18T23:11:18.788Z,89.60
2018-06-18T23:16:15.555Z,89.10
2018-06-18T23:21:12.229Z,90.00
2018-06-18T23:26:09.182Z,90.20
2018-06-18T23:31:06.022Z,90.00
2018-06-18T23:36:02.930Z,90.70
2018-06-18T23:40:59.698Z,90.70
2018-06-18T23:45:56.559Z,91.10
2018-06-18T23:50:53.222Z,91.00
2018-06-18T23:55:49.982Z,91.10
